sensor_id;sensor_type;location;lat;lon;timestamp;P1;durP1;ratioP1;P2;durP2;ratioP2
20283;SDS011;10301;50.832;4.080;2023-12-28T00:02:24;6.90;;;3.35;;
20283;SDS011;10301;50.832;4.080;2023-12-28T00:04:51;4.85;;;2.85;;
20283;SDS011;10301;50.832;4.080;2023-12-28T00:07:17;7.05;;;3.45;;
20283;SDS011;10301;50.832;4.080;2023-12-28T00:09:42;7.38;;;3.35;;
20283;SDS011;10301;50.832;4.080;2023-12-28T00:12:08;6.50;;;3.30;;
20283;SDS011;10301;50.832;4.080;2023-12-28T00:14:34;5.95;;;3.00;;
20283;SDS011;10301;50.832;4.080;2023-12-28T00:16:59;8.40;;;3.20;;
20283;SDS011;10301;50.832;4.080;2023-12-28T00:19:25;5.45;;;3.42;;
20283;SDS011;10301;50.832;4.080;2023-12-28T00:21:51;6.88;;;3.20;;
20283;SDS011;10301;50.832;4.080;2023-12-28T00:24:19;6.05;;;3.10;;
20283;SDS011;10301;50.832;4.080;2023-12-28T00:26:45;5.63;;;3.20;;
20283;SDS011;10301;50.832;4.080;2023-12-28T00:29:11;6.82;;;2.97;;
20283;SDS011;10301;50.832;4.080;2023-12-28T00:31:37;9.00;;;3.10;;
20283;SDS011;10301;50.832;4.080;2023-12-28T00:34:02;7.30;;;3.30;;
20283;SDS011;10301;50.832;4.080;2023-12-28T00:36:28;8.57;;;3.28;;
20283;SDS011;10301;50.832;4.080;2023-12-28T00:38:53;6.53;;;3.15;;
20283;SDS011;10301;50.832;4.080;2023-12-28T00:41:19;5.47;;;3.00;;
20283;SDS011;10301;50.832;4.080;2023-12-28T00:43:45;6.53;;;3.22;;
20283;SDS011;10301;50.832;4.080;2023-12-28T00:46:10;7.53;;;3.10;;
20283;SDS011;10301;50.832;4.080;2023-12-28T00:48:37;6.15;;;2.97;;
20283;SDS011;10301;50.832;4.080;2023-12-28T00:51:02;6.85;;;3.00;;
20283;SDS011;10301;50.832;4.080;2023-12-28T00:53:28;6.10;;;3.20;;
20283;SDS011;10301;50.832;4.080;2023-12-28T00:55:54;7.93;;;2.92;;
20283;SDS011;10301;50.832;4.080;2023-12-28T00:58:19;6.32;;;2.97;;
20283;SDS011;10301;50.832;4.080;2023-12-28T01:00:45;6.57;;;3.25;;
20283;SDS011;10301;50.832;4.080;2023-12-28T01:03:11;6.90;;;3.35;;
20283;SDS011;10301;50.832;4.080;2023-12-28T01:05:36;5.72;;;3.15;;
20283;SDS011;10301;50.832;4.080;2023-12-28T01:08:02;6.72;;;3.65;;
20283;SDS011;10301;50.832;4.080;2023-12-28T01:10:28;9.15;;;3.33;;
20283;SDS011;10301;50.832;4.080;2023-12-28T01:12:54;7.72;;;3.40;;
20283;SDS011;10301;50.832;4.080;2023-12-28T01:15:19;7.88;;;3.25;;
20283;SDS011;10301;50.832;4.080;2023-12-28T01:17:45;9.05;;;3.47;;
20283;SDS011;10301;50.832;4.080;2023-12-28T01:20:11;9.73;;;3.45;;
20283;SDS011;10301;50.832;4.080;2023-12-28T01:22:38;6.43;;;3.63;;
20283;SDS011;10301;50.832;4.080;2023-12-28T01:25:03;8.15;;;3.15;;
20283;SDS011;10301;50.832;4.080;2023-12-28T01:27:29;5.10;;;2.45;;
20283;SDS011;10301;50.832;4.080;2023-12-28T01:29:55;6.07;;;3.53;;
20283;SDS011;10301;50.832;4.080;2023-12-28T01:32:21;7.22;;;3.30;;
20283;SDS011;10301;50.832;4.080;2023-12-28T01:34:46;6.97;;;3.28;;
20283;SDS011;10301;50.832;4.080;2023-12-28T01:37:12;6.25;;;3.15;;
20283;SDS011;10301;50.832;4.080;2023-12-28T01:39:38;7.00;;;3.20;;
20283;SDS011;10301;50.832;4.080;2023-12-28T01:42:04;6.75;;;2.95;;
20283;SDS011;10301;50.832;4.080;2023-12-28T01:44:30;5.72;;;3.17;;
20283;SDS011;10301;50.832;4.080;2023-12-28T01:46:55;5.80;;;2.92;;
20283;SDS011;10301;50.832;4.080;2023-12-28T01:49:22;5.35;;;3.05;;
20283;SDS011;10301;50.832;4.080;2023-12-28T01:51:48;9.65;;;3.60;;
20283;SDS011;10301;50.832;4.080;2023-12-28T01:54:15;6.90;;;3.42;;
20283;SDS011;10301;50.832;4.080;2023-12-28T01:56:42;6.78;;;2.95;;
20283;SDS011;10301;50.832;4.080;2023-12-28T01:59:09;7.88;;;3.17;;
20283;SDS011;10301;50.832;4.080;2023-12-28T02:01:35;7.93;;;3.20;;
20283;SDS011;10301;50.832;4.080;2023-12-28T02:04:01;7.47;;;3.10;;
20283;SDS011;10301;50.832;4.080;2023-12-28T02:06:27;7.85;;;3.03;;
20283;SDS011;10301;50.832;4.080;2023-12-28T02:08:53;7.40;;;3.63;;
20283;SDS011;10301;50.832;4.080;2023-12-28T02:11:19;8.95;;;3.33;;
20283;SDS011;10301;50.832;4.080;2023-12-28T02:13:45;6.45;;;2.60;;
20283;SDS011;10301;50.832;4.080;2023-12-28T02:16:20;7.30;;;3.13;;
20283;SDS011;10301;50.832;4.080;2023-12-28T02:18:57;9.85;;;3.10;;
20283;SDS011;10301;50.832;4.080;2023-12-28T02:21:28;7.60;;;2.72;;
20283;SDS011;10301;50.832;4.080;2023-12-28T02:23:56;8.63;;;3.03;;
20283;SDS011;10301;50.832;4.080;2023-12-28T02:26:22;8.68;;;3.22;;
20283;SDS011;10301;50.832;4.080;2023-12-28T02:28:47;8.85;;;3.30;;
20283;SDS011;10301;50.832;4.080;2023-12-28T02:31:19;8.48;;;3.17;;
20283;SDS011;10301;50.832;4.080;2023-12-28T02:33:59;5.90;;;2.97;;
20283;SDS011;10301;50.832;4.080;2023-12-28T02:36:34;11.07;;;4.15;;
20283;SDS011;10301;50.832;4.080;2023-12-28T02:39:02;9.43;;;3.47;;
20283;SDS011;10301;50.832;4.080;2023-12-28T02:41:29;8.82;;;3.15;;
20283;SDS011;10301;50.832;4.080;2023-12-28T02:43:56;7.93;;;3.00;;
20283;SDS011;10301;50.832;4.080;2023-12-28T02:46:22;6.60;;;2.65;;
20283;SDS011;10301;50.832;4.080;2023-12-28T02:48:48;7.25;;;3.35;;
20283;SDS011;10301;50.832;4.080;2023-12-28T02:51:14;9.73;;;3.40;;
20283;SDS011;10301;50.832;4.080;2023-12-28T02:53:41;7.90;;;3.10;;
20283;SDS011;10301;50.832;4.080;2023-12-28T02:56:07;6.20;;;2.95;;
20283;SDS011;10301;50.832;4.080;2023-12-28T02:58:33;6.20;;;3.10;;
20283;SDS011;10301;50.832;4.080;2023-12-28T03:00:58;9.23;;;3.05;;
20283;SDS011;10301;50.832;4.080;2023-12-28T03:03:24;8.88;;;3.53;;
20283;SDS011;10301;50.832;4.080;2023-12-28T03:05:50;7.63;;;3.30;;
20283;SDS011;10301;50.832;4.080;2023-12-28T03:08:15;7.45;;;2.95;;
20283;SDS011;10301;50.832;4.080;2023-12-28T03:10:42;8.98;;;3.10;;
20283;SDS011;10301;50.832;4.080;2023-12-28T03:13:07;7.78;;;3.15;;
20283;SDS011;10301;50.832;4.080;2023-12-28T03:15:33;8.20;;;3.03;;
20283;SDS011;10301;50.832;4.080;2023-12-28T03:17:59;8.80;;;3.45;;
20283;SDS011;10301;50.832;4.080;2023-12-28T03:20:24;8.43;;;3.30;;
20283;SDS011;10301;50.832;4.080;2023-12-28T03:22:50;10.23;;;3.42;;
20283;SDS011;10301;50.832;4.080;2023-12-28T03:25:15;10.30;;;3.40;;
20283;SDS011;10301;50.832;4.080;2023-12-28T03:27:41;9.38;;;2.97;;
20283;SDS011;10301;50.832;4.080;2023-12-28T03:30:07;10.30;;;3.78;;
20283;SDS011;10301;50.832;4.080;2023-12-28T03:32:33;8.95;;;2.97;;
20283;SDS011;10301;50.832;4.080;2023-12-28T03:34:59;8.80;;;3.00;;
20283;SDS011;10301;50.832;4.080;2023-12-28T03:37:24;8.15;;;2.85;;
20283;SDS011;10301;50.832;4.080;2023-12-28T03:39:50;9.30;;;2.83;;
20283;SDS011;10301;50.832;4.080;2023-12-28T03:42:16;8.00;;;2.80;;
20283;SDS011;10301;50.832;4.080;2023-12-28T03:44:41;7.20;;;2.33;;
20283;SDS011;10301;50.832;4.080;2023-12-28T03:47:07;11.27;;;3.75;;
20283;SDS011;10301;50.832;4.080;2023-12-28T03:49:33;6.55;;;2.05;;
20283;SDS011;10301;50.832;4.080;2023-12-28T03:51:58;10.13;;;2.67;;
20283;SDS011;10301;50.832;4.080;2023-12-28T03:54:24;7.43;;;2.42;;
20283;SDS011;10301;50.832;4.080;2023-12-28T03:56:49;10.40;;;3.25;;
20283;SDS011;10301;50.832;4.080;2023-12-28T03:59:15;11.93;;;3.00;;
20283;SDS011;10301;50.832;4.080;2023-12-28T04:01:41;10.85;;;2.75;;
20283;SDS011;10301;50.832;4.080;2023-12-28T04:04:06;9.70;;;3.20;;
20283;SDS011;10301;50.832;4.080;2023-12-28T04:06:32;6.90;;;2.80;;
20283;SDS011;10301;50.832;4.080;2023-12-28T04:08:58;9.40;;;2.78;;
20283;SDS011;10301;50.832;4.080;2023-12-28T04:11:23;10.07;;;2.35;;
20283;SDS011;10301;50.832;4.080;2023-12-28T04:13:49;9.13;;;2.70;;
20283;SDS011;10301;50.832;4.080;2023-12-28T04:16:15;9.00;;;3.10;;
20283;SDS011;10301;50.832;4.080;2023-12-28T04:18:41;10.63;;;2.67;;
20283;SDS011;10301;50.832;4.080;2023-12-28T04:21:11;9.83;;;2.83;;
20283;SDS011;10301;50.832;4.080;2023-12-28T04:23:38;10.73;;;2.22;;
20283;SDS011;10301;50.832;4.080;2023-12-28T04:26:04;14.75;;;2.90;;
20283;SDS011;10301;50.832;4.080;2023-12-28T04:28:30;9.35;;;2.08;;
20283;SDS011;10301;50.832;4.080;2023-12-28T04:30:55;9.88;;;2.50;;
20283;SDS011;10301;50.832;4.080;2023-12-28T04:33:21;10.38;;;2.55;;
20283;SDS011;10301;50.832;4.080;2023-12-28T04:35:47;7.53;;;2.10;;
20283;SDS011;10301;50.832;4.080;2023-12-28T04:38:13;12.80;;;2.38;;
20283;SDS011;10301;50.832;4.080;2023-12-28T04:40:40;7.25;;;2.30;;
20283;SDS011;10301;50.832;4.080;2023-12-28T04:43:06;11.27;;;2.38;;
20283;SDS011;10301;50.832;4.080;2023-12-28T04:45:32;13.32;;;2.78;;
20283;SDS011;10301;50.832;4.080;2023-12-28T04:47:57;7.97;;;2.33;;
20283;SDS011;10301;50.832;4.080;2023-12-28T04:50:24;11.45;;;2.17;;
20283;SDS011;10301;50.832;4.080;2023-12-28T04:52:49;8.48;;;2.33;;
20283;SDS011;10301;50.832;4.080;2023-12-28T04:55:15;9.57;;;2.53;;
20283;SDS011;10301;50.832;4.080;2023-12-28T04:57:41;10.55;;;2.88;;
20283;SDS011;10301;50.832;4.080;2023-12-28T05:00:07;11.05;;;2.42;;
20283;SDS011;10301;50.832;4.080;2023-12-28T05:02:33;9.63;;;2.40;;
20283;SDS011;10301;50.832;4.080;2023-12-28T05:04:59;10.37;;;2.43;;
20283;SDS011;10301;50.832;4.080;2023-12-28T05:07:25;15.43;;;2.60;;
20283;SDS011;10301;50.832;4.080;2023-12-28T05:09:50;7.32;;;2.17;;
20283;SDS011;10301;50.832;4.080;2023-12-28T05:12:16;8.05;;;1.85;;
20283;SDS011;10301;50.832;4.080;2023-12-28T05:14:42;13.82;;;3.53;;
20283;SDS011;10301;50.832;4.080;2023-12-28T05:17:07;11.10;;;2.23;;
20283;SDS011;10301;50.832;4.080;2023-12-28T05:19:33;11.43;;;2.80;;
20283;SDS011;10301;50.832;4.080;2023-12-28T05:21:59;10.55;;;2.22;;
20283;SDS011;10301;50.832;4.080;2023-12-28T05:24:28;12.60;;;2.75;;
20283;SDS011;10301;50.832;4.080;2023-12-28T05:26:54;10.75;;;3.28;;
20283;SDS011;10301;50.832;4.080;2023-12-28T05:29:20;7.88;;;2.60;;
20283;SDS011;10301;50.832;4.080;2023-12-28T05:31:45;12.00;;;2.33;;
20283;SDS011;10301;50.832;4.080;2023-12-28T05:34:11;12.40;;;2.50;;
20283;SDS011;10301;50.832;4.080;2023-12-28T05:36:37;8.50;;;2.17;;
20283;SDS011;10301;50.832;4.080;2023-12-28T05:39:02;7.93;;;2.10;;
20283;SDS011;10301;50.832;4.080;2023-12-28T05:41:29;11.75;;;2.20;;
20283;SDS011;10301;50.832;4.080;2023-12-28T05:43:54;10.60;;;2.30;;
20283;SDS011;10301;50.832;4.080;2023-12-28T05:46:20;10.02;;;3.05;;
20283;SDS011;10301;50.832;4.080;2023-12-28T05:48:45;8.07;;;2.25;;
20283;SDS011;10301;50.832;4.080;2023-12-28T05:51:11;12.70;;;2.10;;
20283;SDS011;10301;50.832;4.080;2023-12-28T05:53:37;7.93;;;2.25;;
20283;SDS011;10301;50.832;4.080;2023-12-28T05:56:03;10.20;;;2.10;;
20283;SDS011;10301;50.832;4.080;2023-12-28T05:58:29;12.85;;;3.17;;
20283;SDS011;10301;50.832;4.080;2023-12-28T06:00:54;8.07;;;2.23;;
20283;SDS011;10301;50.832;4.080;2023-12-28T06:03:20;11.10;;;2.55;;
20283;SDS011;10301;50.832;4.080;2023-12-28T06:05:46;15.38;;;2.90;;
20283;SDS011;10301;50.832;4.080;2023-12-28T06:08:11;7.50;;;2.33;;
20283;SDS011;10301;50.832;4.080;2023-12-28T06:10:38;9.93;;;2.20;;
20283;SDS011;10301;50.832;4.080;2023-12-28T06:13:03;11.50;;;2.27;;
20283;SDS011;10301;50.832;4.080;2023-12-28T06:15:29;14.50;;;2.20;;
20283;SDS011;10301;50.832;4.080;2023-12-28T06:17:55;10.17;;;2.23;;
20283;SDS011;10301;50.832;4.080;2023-12-28T06:20:21;12.83;;;3.20;;
20283;SDS011;10301;50.832;4.080;2023-12-28T06:22:46;11.60;;;2.37;;
20283;SDS011;10301;50.832;4.080;2023-12-28T06:25:13;8.48;;;2.20;;
20283;SDS011;10301;50.832;4.080;2023-12-28T06:27:39;14.47;;;2.20;;
20283;SDS011;10301;50.832;4.080;2023-12-28T06:30:05;9.75;;;2.28;;
20283;SDS011;10301;50.832;4.080;2023-12-28T06:32:31;8.02;;;1.98;;
20283;SDS011;10301;50.832;4.080;2023-12-28T06:34:57;8.93;;;2.40;;
20283;SDS011;10301;50.832;4.080;2023-12-28T06:37:22;13.97;;;3.03;;
20283;SDS011;10301;50.832;4.080;2023-12-28T06:39:48;16.50;;;2.83;;
20283;SDS011;10301;50.832;4.080;2023-12-28T06:42:14;10.47;;;2.03;;
20283;SDS011;10301;50.832;4.080;2023-12-28T06:44:40;13.53;;;2.37;;
20283;SDS011;10301;50.832;4.080;2023-12-28T06:47:05;10.40;;;2.43;;
20283;SDS011;10301;50.832;4.080;2023-12-28T06:49:31;12.27;;;2.45;;
20283;SDS011;10301;50.832;4.080;2023-12-28T06:51:57;10.10;;;2.13;;
20283;SDS011;10301;50.832;4.080;2023-12-28T06:54:22;9.20;;;2.03;;
20283;SDS011;10301;50.832;4.080;2023-12-28T06:56:49;8.63;;;1.98;;
20283;SDS011;10301;50.832;4.080;2023-12-28T06:59:16;8.97;;;2.47;;
20283;SDS011;10301;50.832;4.080;2023-12-28T07:01:42;9.70;;;2.53;;
20283;SDS011;10301;50.832;4.080;2023-12-28T07:04:09;18.87;;;3.27;;
20283;SDS011;10301;50.832;4.080;2023-12-28T07:06:35;12.37;;;2.40;;
20283;SDS011;10301;50.832;4.080;2023-12-28T07:09:00;11.57;;;2.83;;
20283;SDS011;10301;50.832;4.080;2023-12-28T07:11:27;10.80;;;2.23;;
20283;SDS011;10301;50.832;4.080;2023-12-28T07:13:53;12.80;;;3.43;;
20283;SDS011;10301;50.832;4.080;2023-12-28T07:16:18;8.43;;;2.43;;
20283;SDS011;10301;50.832;4.080;2023-12-28T07:18:44;13.77;;;2.73;;
20283;SDS011;10301;50.832;4.080;2023-12-28T07:21:10;16.20;;;4.00;;
20283;SDS011;10301;50.832;4.080;2023-12-28T07:23:36;17.20;;;2.37;;
20283;SDS011;10301;50.832;4.080;2023-12-28T07:26:02;12.43;;;2.43;;
20283;SDS011;10301;50.832;4.080;2023-12-28T07:28:28;11.60;;;2.73;;
20283;SDS011;10301;50.832;4.080;2023-12-28T07:30:54;13.07;;;2.13;;
20283;SDS011;10301;50.832;4.080;2023-12-28T07:33:19;13.13;;;2.40;;
20283;SDS011;10301;50.832;4.080;2023-12-28T07:35:45;10.00;;;2.10;;
20283;SDS011;10301;50.832;4.080;2023-12-28T07:38:11;14.90;;;2.67;;
20283;SDS011;10301;50.832;4.080;2023-12-28T07:40:37;15.23;;;2.67;;
20283;SDS011;10301;50.832;4.080;2023-12-28T07:43:03;11.80;;;2.13;;
20283;SDS011;10301;50.832;4.080;2023-12-28T07:45:29;19.47;;;3.13;;
20283;SDS011;10301;50.832;4.080;2023-12-28T07:47:54;12.20;;;2.40;;
20283;SDS011;10301;50.832;4.080;2023-12-28T07:50:20;16.27;;;3.30;;
20283;SDS011;10301;50.832;4.080;2023-12-28T07:52:47;11.17;;;2.17;;
20283;SDS011;10301;50.832;4.080;2023-12-28T07:55:13;12.33;;;2.13;;
20283;SDS011;10301;50.832;4.080;2023-12-28T07:57:39;10.63;;;2.20;;
20283;SDS011;10301;50.832;4.080;2023-12-28T08:00:05;17.53;;;3.67;;
20283;SDS011;10301;50.832;4.080;2023-12-28T08:02:31;14.97;;;2.67;;
20283;SDS011;10301;50.832;4.080;2023-12-28T08:04:58;17.70;;;3.33;;
20283;SDS011;10301;50.832;4.080;2023-12-28T08:07:23;13.33;;;3.47;;
20283;SDS011;10301;50.832;4.080;2023-12-28T08:09:49;19.90;;;5.30;;
20283;SDS011;10301;50.832;4.080;2023-12-28T08:12:15;20.17;;;4.07;;
20283;SDS011;10301;50.832;4.080;2023-12-28T08:14:42;14.00;;;3.10;;
20283;SDS011;10301;50.832;4.080;2023-12-28T08:17:08;19.30;;;3.27;;
20283;SDS011;10301;50.832;4.080;2023-12-28T08:19:33;15.60;;;2.83;;
20283;SDS011;10301;50.832;4.080;2023-12-28T08:21:59;14.73;;;2.50;;
20283;SDS011;10301;50.832;4.080;2023-12-28T08:24:25;14.30;;;2.70;;
20283;SDS011;10301;50.832;4.080;2023-12-28T08:26:50;14.63;;;2.77;;
20283;SDS011;10301;50.832;4.080;2023-12-28T08:29:16;16.40;;;3.77;;
20283;SDS011;10301;50.832;4.080;2023-12-28T08:31:43;15.87;;;3.07;;
20283;SDS011;10301;50.832;4.080;2023-12-28T08:34:08;13.47;;;3.47;;
20283;SDS011;10301;50.832;4.080;2023-12-28T08:36:34;11.43;;;2.38;;
20283;SDS011;10301;50.832;4.080;2023-12-28T08:39:00;16.17;;;2.55;;
20283;SDS011;10301;50.832;4.080;2023-12-28T08:41:26;13.18;;;2.25;;
20283;SDS011;10301;50.832;4.080;2023-12-28T08:43:52;13.93;;;2.70;;
20283;SDS011;10301;50.832;4.080;2023-12-28T08:46:19;15.67;;;2.80;;
20283;SDS011;10301;50.832;4.080;2023-12-28T08:48:46;12.93;;;2.50;;
20283;SDS011;10301;50.832;4.080;2023-12-28T08:51:11;9.67;;;2.03;;
20283;SDS011;10301;50.832;4.080;2023-12-28T08:53:39;13.68;;;1.95;;
20283;SDS011;10301;50.832;4.080;2023-12-28T08:56:16;11.98;;;2.55;;
20283;SDS011;10301;50.832;4.080;2023-12-28T08:58:43;16.13;;;3.33;;
20283;SDS011;10301;50.832;4.080;2023-12-28T09:01:15;14.77;;;4.17;;
20283;SDS011;10301;50.832;4.080;2023-12-28T09:03:47;16.93;;;3.20;;
20283;SDS011;10301;50.832;4.080;2023-12-28T09:06:16;13.25;;;2.10;;
20283;SDS011;10301;50.832;4.080;2023-12-28T09:08:43;13.73;;;2.60;;
20283;SDS011;10301;50.832;4.080;2023-12-28T09:11:13;14.73;;;2.87;;
20283;SDS011;10301;50.832;4.080;2023-12-28T09:13:39;16.80;;;3.33;;
20283;SDS011;10301;50.832;4.080;2023-12-28T09:16:07;14.40;;;3.13;;
20283;SDS011;10301;50.832;4.080;2023-12-28T09:18:34;10.63;;;2.07;;
20283;SDS011;10301;50.832;4.080;2023-12-28T09:21:02;21.37;;;3.30;;
20283;SDS011;10301;50.832;4.080;2023-12-28T09:23:32;12.50;;;2.27;;
20283;SDS011;10301;50.832;4.080;2023-12-28T09:25:58;11.10;;;2.13;;
20283;SDS011;10301;50.832;4.080;2023-12-28T09:28:28;20.42;;;2.90;;
20283;SDS011;10301;50.832;4.080;2023-12-28T09:30:54;15.90;;;4.20;;
20283;SDS011;10301;50.832;4.080;2023-12-28T09:33:20;13.35;;;2.85;;
20283;SDS011;10301;50.832;4.080;2023-12-28T09:35:46;14.95;;;2.40;;
20283;SDS011;10301;50.832;4.080;2023-12-28T09:38:12;16.55;;;2.33;;
20283;SDS011;10301;50.832;4.080;2023-12-28T09:40:41;10.00;;;2.25;;
20283;SDS011;10301;50.832;4.080;2023-12-28T09:43:26;18.10;;;2.83;;
20283;SDS011;10301;50.832;4.080;2023-12-28T09:46:06;12.20;;;2.05;;
20283;SDS011;10301;50.832;4.080;2023-12-28T09:48:36;13.85;;;2.50;;
20283;SDS011;10301;50.832;4.080;2023-12-28T09:51:04;15.02;;;2.38;;
20283;SDS011;10301;50.832;4.080;2023-12-28T09:53:30;11.38;;;2.17;;
20283;SDS011;10301;50.832;4.080;2023-12-28T09:55:56;13.85;;;2.03;;
20283;SDS011;10301;50.832;4.080;2023-12-28T09:58:23;16.25;;;3.00;;
20283;SDS011;10301;50.832;4.080;2023-12-28T10:00:50;12.80;;;3.13;;
20283;SDS011;10301;50.832;4.080;2023-12-28T10:03:16;11.82;;;2.60;;
20283;SDS011;10301;50.832;4.080;2023-12-28T10:05:43;16.55;;;2.70;;
20283;SDS011;10301;50.832;4.080;2023-12-28T10:08:13;16.65;;;4.95;;
20283;SDS011;10301;50.832;4.080;2023-12-28T10:10:40;11.52;;;3.50;;
20283;SDS011;10301;50.832;4.080;2023-12-28T10:13:07;11.27;;;3.20;;
20283;SDS011;10301;50.832;4.080;2023-12-28T10:15:34;17.40;;;3.33;;
20283;SDS011;10301;50.832;4.080;2023-12-28T10:18:01;17.80;;;3.35;;
20283;SDS011;10301;50.832;4.080;2023-12-28T10:20:27;18.15;;;3.03;;
20283;SDS011;10301;50.832;4.080;2023-12-28T10:22:53;16.55;;;3.33;;
20283;SDS011;10301;50.832;4.080;2023-12-28T10:25:19;14.90;;;3.03;;
20283;SDS011;10301;50.832;4.080;2023-12-28T10:27:45;13.80;;;2.80;;
20283;SDS011;10301;50.832;4.080;2023-12-28T10:30:10;12.52;;;2.55;;
20283;SDS011;10301;50.832;4.080;2023-12-28T10:32:39;12.38;;;2.45;;
20283;SDS011;10301;50.832;4.080;2023-12-28T10:35:05;17.42;;;2.75;;
20283;SDS011;10301;50.832;4.080;2023-12-28T10:37:32;16.52;;;2.70;;
20283;SDS011;10301;50.832;4.080;2023-12-28T10:40:00;10.68;;;2.28;;
20283;SDS011;10301;50.832;4.080;2023-12-28T10:42:31;11.68;;;2.80;;
20283;SDS011;10301;50.832;4.080;2023-12-28T10:45:05;12.43;;;3.08;;
20283;SDS011;10301;50.832;4.080;2023-12-28T10:47:31;13.85;;;2.70;;
20283;SDS011;10301;50.832;4.080;2023-12-28T10:50:02;17.70;;;2.67;;
20283;SDS011;10301;50.832;4.080;2023-12-28T10:52:30;15.70;;;2.33;;
20283;SDS011;10301;50.832;4.080;2023-12-28T10:57:53;15.52;;;3.08;;
20283;SDS011;10301;50.832;4.080;2023-12-28T11:00:35;17.65;;;3.13;;
20283;SDS011;10301;50.832;4.080;2023-12-28T11:03:09;15.02;;;2.85;;
20283;SDS011;10301;50.832;4.080;2023-12-28T11:05:37;16.40;;;2.67;;
20283;SDS011;10301;50.832;4.080;2023-12-28T11:08:05;13.85;;;3.13;;
20283;SDS011;10301;50.832;4.080;2023-12-28T11:10:33;16.58;;;2.67;;
20283;SDS011;10301;50.832;4.080;2023-12-28T11:13:01;20.08;;;3.63;;
20283;SDS011;10301;50.832;4.080;2023-12-28T11:15:28;19.05;;;2.47;;
20283;SDS011;10301;50.832;4.080;2023-12-28T11:17:56;14.23;;;3.30;;
20283;SDS011;10301;50.832;4.080;2023-12-28T11:20:21;14.95;;;3.15;;
20283;SDS011;10301;50.832;4.080;2023-12-28T11:22:47;17.40;;;2.53;;
20283;SDS011;10301;50.832;4.080;2023-12-28T11:25:15;13.90;;;2.47;;
20283;SDS011;10301;50.832;4.080;2023-12-28T11:27:45;13.80;;;2.58;;
20283;SDS011;10301;50.832;4.080;2023-12-28T11:30:11;15.55;;;2.30;;
20283;SDS011;10301;50.832;4.080;2023-12-28T11:32:38;14.38;;;2.60;;
20283;SDS011;10301;50.832;4.080;2023-12-28T11:35:11;16.30;;;3.90;;
20283;SDS011;10301;50.832;4.080;2023-12-28T11:37:41;17.92;;;2.40;;
20283;SDS011;10301;50.832;4.080;2023-12-28T11:40:12;15.75;;;2.92;;
20283;SDS011;10301;50.832;4.080;2023-12-28T11:42:49;14.27;;;2.78;;
20283;SDS011;10301;50.832;4.080;2023-12-28T11:45:19;16.00;;;2.85;;
20283;SDS011;10301;50.832;4.080;2023-12-28T11:47:46;14.93;;;2.63;;
20283;SDS011;10301;50.832;4.080;2023-12-28T11:50:12;15.93;;;2.88;;
20283;SDS011;10301;50.832;4.080;2023-12-28T11:52:38;15.02;;;2.55;;
20283;SDS011;10301;50.832;4.080;2023-12-28T11:55:04;18.35;;;2.72;;
20283;SDS011;10301;50.832;4.080;2023-12-28T11:57:30;22.42;;;3.22;;
20283;SDS011;10301;50.832;4.080;2023-12-28T11:59:59;12.10;;;2.72;;
20283;SDS011;10301;50.832;4.080;2023-12-28T12:02:25;17.83;;;3.10;;
20283;SDS011;10301;50.832;4.080;2023-12-28T12:04:51;20.02;;;3.42;;
20283;SDS011;10301;50.832;4.080;2023-12-28T12:07:18;16.75;;;2.55;;
20283;SDS011;10301;50.832;4.080;2023-12-28T12:09:44;15.82;;;2.85;;
20283;SDS011;10301;50.832;4.080;2023-12-28T12:12:10;18.58;;;3.75;;
20283;SDS011;10301;50.832;4.080;2023-12-28T12:14:36;20.17;;;3.70;;
20283;SDS011;10301;50.832;4.080;2023-12-28T12:17:03;12.32;;;2.67;;
20283;SDS011;10301;50.832;4.080;2023-12-28T12:19:29;19.52;;;3.38;;
20283;SDS011;10301;50.832;4.080;2023-12-28T12:21:55;10.55;;;2.70;;
20283;SDS011;10301;50.832;4.080;2023-12-28T12:24:22;17.50;;;3.13;;
20283;SDS011;10301;50.832;4.080;2023-12-28T12:26:52;11.45;;;4.88;;
20283;SDS011;10301;50.832;4.080;2023-12-28T12:29:18;16.85;;;2.92;;
20283;SDS011;10301;50.832;4.080;2023-12-28T12:31:44;18.48;;;3.53;;
20283;SDS011;10301;50.832;4.080;2023-12-28T12:34:13;12.70;;;2.53;;
20283;SDS011;10301;50.832;4.080;2023-12-28T12:36:41;16.27;;;2.65;;
20283;SDS011;10301;50.832;4.080;2023-12-28T12:39:06;16.10;;;3.35;;
20283;SDS011;10301;50.832;4.080;2023-12-28T12:41:33;17.58;;;4.68;;
20283;SDS011;10301;50.832;4.080;2023-12-28T12:43:59;17.58;;;2.65;;
20283;SDS011;10301;50.832;4.080;2023-12-28T12:46:26;15.55;;;3.33;;
20283;SDS011;10301;50.832;4.080;2023-12-28T12:48:55;16.52;;;2.67;;
20283;SDS011;10301;50.832;4.080;2023-12-28T12:51:25;15.88;;;2.78;;
20283;SDS011;10301;50.832;4.080;2023-12-28T12:53:58;14.57;;;2.78;;
20283;SDS011;10301;50.832;4.080;2023-12-28T12:56:27;16.23;;;2.53;;
20283;SDS011;10301;50.832;4.080;2023-12-28T12:58:53;14.48;;;2.50;;
20283;SDS011;10301;50.832;4.080;2023-12-28T13:01:20;13.60;;;2.45;;
20283;SDS011;10301;50.832;4.080;2023-12-28T13:03:46;14.32;;;2.58;;
20283;SDS011;10301;50.832;4.080;2023-12-28T13:06:12;15.02;;;3.28;;
20283;SDS011;10301;50.832;4.080;2023-12-28T13:08:38;21.42;;;3.10;;
20283;SDS011;10301;50.832;4.080;2023-12-28T13:11:04;14.85;;;3.28;;
20283;SDS011;10301;50.832;4.080;2023-12-28T13:13:32;18.08;;;3.72;;
20283;SDS011;10301;50.832;4.080;2023-12-28T13:15:58;16.98;;;3.10;;
20283;SDS011;10301;50.832;4.080;2023-12-28T13:18:24;14.05;;;2.90;;
20283;SDS011;10301;50.832;4.080;2023-12-28T13:20:50;16.00;;;2.83;;
20283;SDS011;10301;50.832;4.080;2023-12-28T13:23:15;12.82;;;2.35;;
20283;SDS011;10301;50.832;4.080;2023-12-28T13:25:41;19.73;;;3.33;;
20283;SDS011;10301;50.832;4.080;2023-12-28T13:28:08;18.05;;;3.10;;
20283;SDS011;10301;50.832;4.080;2023-12-28T13:30:34;14.35;;;3.63;;
20283;SDS011;10301;50.832;4.080;2023-12-28T13:33:01;14.45;;;3.55;;
20283;SDS011;10301;50.832;4.080;2023-12-28T13:35:28;17.90;;;3.17;;
20283;SDS011;10301;50.832;4.080;2023-12-28T13:37:53;15.18;;;2.63;;
20283;SDS011;10301;50.832;4.080;2023-12-28T13:40:20;13.75;;;2.63;;
20283;SDS011;10301;50.832;4.080;2023-12-28T13:42:46;16.00;;;2.53;;
20283;SDS011;10301;50.832;4.080;2023-12-28T13:45:12;14.75;;;2.92;;
20283;SDS011;10301;50.832;4.080;2023-12-28T13:47:37;19.52;;;3.53;;
20283;SDS011;10301;50.832;4.080;2023-12-28T13:50:03;14.07;;;3.10;;
20283;SDS011;10301;50.832;4.080;2023-12-28T13:52:31;16.92;;;3.13;;
20283;SDS011;10301;50.832;4.080;2023-12-28T13:54:57;12.90;;;2.70;;
20283;SDS011;10301;50.832;4.080;2023-12-28T13:57:22;14.50;;;3.15;;
20283;SDS011;10301;50.832;4.080;2023-12-28T13:59:48;16.92;;;3.33;;
20283;SDS011;10301;50.832;4.080;2023-12-28T14:02:14;16.63;;;2.95;;
20283;SDS011;10301;50.832;4.080;2023-12-28T14:04:39;13.48;;;3.75;;
20283;SDS011;10301;50.832;4.080;2023-12-28T14:07:05;16.35;;;2.60;;
20283;SDS011;10301;50.832;4.080;2023-12-28T14:09:31;13.60;;;4.45;;
20283;SDS011;10301;50.832;4.080;2023-12-28T14:11:58;10.80;;;2.40;;
20283;SDS011;10301;50.832;4.080;2023-12-28T14:14:23;18.90;;;2.88;;
20283;SDS011;10301;50.832;4.080;2023-12-28T14:16:49;18.35;;;2.72;;
20283;SDS011;10301;50.832;4.080;2023-12-28T14:19:15;14.15;;;2.63;;
20283;SDS011;10301;50.832;4.080;2023-12-28T14:21:40;14.80;;;2.58;;
20283;SDS011;10301;50.832;4.080;2023-12-28T14:24:06;15.68;;;2.85;;
20283;SDS011;10301;50.832;4.080;2023-12-28T14:26:33;14.07;;;2.80;;
20283;SDS011;10301;50.832;4.080;2023-12-28T14:29:00;15.13;;;2.80;;
20283;SDS011;10301;50.832;4.080;2023-12-28T14:31:30;17.52;;;2.92;;
20283;SDS011;10301;50.832;4.080;2023-12-28T14:33:56;9.98;;;2.42;;
20283;SDS011;10301;50.832;4.080;2023-12-28T14:36:35;12.90;;;2.58;;
20283;SDS011;10301;50.832;4.080;2023-12-28T14:39:03;14.77;;;2.92;;